Time;durP1;ratioP1;P1;durP2;ratioP2;P2;SDS_P1;SDS_P2;PMS_P1;PMS_P2;Temp;Humidity;BMP_temperature;BMP_pressure;BME280_temperature;BME280_humidity;BME280_pressure;Samples;Min_cycle;Max_cycle;Signal;HPM_P1;HPM_P2
2023/09/27 00:00:58;;;;;;;4.95;4.45;;;10.40;99.90;;;;;;2074377;28;20232;-83
2023/09/27 00:01:59;;;;;;;5.90;3.90;;;10.50;99.90;;;;;;2074627;28;20292;-83
2023/09/27 00:03:00;;;;;;;5.10;3.80;;;10.40;99.90;;;;;;2074688;28;20249;-83
2023/09/27 00:04:00;;;;;;;3.70;3.40;;;10.40;99.90;;;;;;2073467;28;20576;-83
2023/09/27 00:05:06;;;;;;;4.63;3.97;;;10.40;99.90;;;;;;2074986;28;20217;-83
2023/09/27 00:06:07;;;;;;;5.03;3.90;;;10.30;99.90;;;;;;2073833;28;20225;-83
2023/09/27 00:07:08;;;;;;;4.70;4.20;;;10.30;99.90;;;;;;2074883;28;20300;-83
2023/09/27 00:08:10;;;;;;;5.13;4.63;;;10.40;99.90;;;;;;2066460;28;20267;-83
2023/09/27 00:09:11;;;;;;;4.90;4.38;;;10.30;99.90;;;;;;2075951;28;20200;-83
2023/09/27 00:10:12;;;;;;;5.43;4.97;;;10.30;99.90;;;;;;2084224;28;20192;-83
2023/09/27 00:11:13;;;;;;;5.93;4.60;;;10.40;99.90;;;;;;2075335;28;20231;-83
2023/09/27 00:12:15;;;;;;;4.88;4.38;;;10.30;99.90;;;;;;2075553;28;20519;-84
2023/09/27 00:13:17;;;;;;;4.53;4.13;;;10.30;99.90;;;;;;2075857;28;20185;-82
2023/09/27 00:14:17;;;;;;;4.93;4.13;;;10.30;99.90;;;;;;2075512;28;20208;-83
2023/09/27 00:15:18;;;;;;;4.87;4.37;;;10.30;99.90;;;;;;2075913;28;20221;-83
2023/09/27 00:16:19;;;;;;;4.97;4.47;;;10.30;99.90;;;;;;2066930;28;20197;-83
2023/09/27 00:17:19;;;;;;;4.63;4.23;;;10.30;99.90;;;;;;2075730;28;20232;-83
2023/09/27 00:18:20;;;;;;;5.43;4.07;;;10.30;99.90;;;;;;2083517;28;20200;-83
2023/09/27 00:19:21;;;;;;;4.43;3.90;;;10.20;99.90;;;;;;2074394;28;20711;-83
2023/09/27 00:20:22;;;;;;;4.10;3.70;;;10.20;99.90;;;;;;2065305;28;20648;-84
2023/09/27 00:21:23;;;;;;;4.60;4.17;;;10.20;99.90;;;;;;2066685;28;20224;-82
2023/09/27 00:22:27;;;;;;;6.73;4.07;;;10.20;99.90;;;;;;2075628;28;20248;-84
2023/09/27 00:23:27;;;;;;;4.60;4.20;;;10.20;99.90;;;;;;2074327;28;20233;-82
2023/09/27 00:24:28;;;;;;;5.20;4.20;;;10.20;99.90;;;;;;2066747;28;20234;-83
2023/09/27 00:25:28;;;;;;;6.43;4.23;;;10.30;99.90;;;;;;2067218;28;20237;-84
2023/09/27 00:26:29;;;;;;;4.13;3.77;;;10.20;99.90;;;;;;2075227;28;20237;-83
2023/09/27 00:27:30;;;;;;;4.53;4.13;;;10.20;99.90;;;;;;2075429;28;20243;-83
2023/09/27 00:28:31;;;;;;;4.68;4.28;;;10.20;99.90;;;;;;2074276;28;20232;-83
2023/09/27 00:29:31;;;;;;;4.70;4.00;;;10.20;99.90;;;;;;2075535;28;20351;-84
2023/09/27 00:30:32;;;;;;;4.37;3.97;;;10.30;99.90;;;;;;2076317;28;20740;-84
2023/09/27 00:31:33;;;;;;;4.17;3.77;;;10.30;99.90;;;;;;2076167;28;20229;-84
2023/09/27 00:32:33;;;;;;;4.57;4.17;;;10.20;99.90;;;;;;2075956;28;20247;-83
2023/09/27 00:33:34;;;;;;;4.17;3.77;;;10.30;99.90;;;;;;2074509;28;20233;-83
2023/09/27 00:34:35;;;;;;;5.05;3.88;;;10.20;99.90;;;;;;2067634;28;20244;-83
2023/09/27 00:35:36;;;;;;;3.93;3.57;;;10.20;99.90;;;;;;2067781;28;20229;-84
2023/09/27 00:36:36;;;;;;;4.37;3.80;;;10.20;99.90;;;;;;2074928;28;20375;-82
2023/09/27 00:37:37;;;;;;;3.07;2.87;;;10.20;99.90;;;;;;2076611;28;20596;-83
2023/09/27 00:38:38;;;;;;;4.07;3.70;;;10.20;99.90;;;;;;2075588;28;20248;-82
2023/09/27 00:39:39;;;;;;;4.10;3.70;;;10.10;99.90;;;;;;2075933;28;20303;-84
2023/09/27 00:40:49;;;;;;;3.50;3.20;;;10.10;99.90;;;;;;2077039;28;20221;-82
2023/09/27 00:41:49;;;;;;;3.50;3.20;;;10.10;99.90;;;;;;2077806;28;20293;-82
2023/09/27 00:42:50;;;;;;;4.50;3.30;;;10.00;99.90;;;;;;2072046;28;20334;-83
2023/09/27 00:43:51;;;;;;;3.80;3.40;;;10.00;99.90;;;;;;2072763;28;20241;-83
2023/09/27 00:44:52;;;;;;;3.63;3.20;;;10.00;99.90;;;;;;2079008;28;20297;-84
2023/09/27 00:45:56;;;;;;;4.13;2.93;;;10.00;99.90;;;;;;2085824;28;20227;-84
2023/09/27 00:46:57;;;;;;;3.60;3.30;;;9.90;99.90;;;;;;2075937;28;20245;-82
2023/09/27 00:47:58;;;;;;;3.47;3.17;;;9.90;99.90;;;;;;2076941;28;20224;-84
2023/09/27 00:48:59;;;;;;;5.23;3.87;;;9.90;99.90;;;;;;2066521;28;20779;-84
2023/09/27 00:50:00;;;;;;;5.20;4.63;;;9.90;99.90;;;;;;2068589;28;20778;-83
2023/09/27 00:51:02;;;;;;;4.23;3.83;;;9.90;99.90;;;;;;2076374;28;20237;-84
2023/09/27 00:52:03;;;;;;;4.32;3.85;;;9.90;99.90;;;;;;2076707;28;20255;-84
2023/09/27 00:53:04;;;;;;;4.18;3.78;;;9.90;99.90;;;;;;2075776;28;20221;-83
2023/09/27 00:54:05;;;;;;;4.20;3.80;;;9.90;99.90;;;;;;2076225;28;20213;-83
2023/09/27 00:55:10;;;;;;;3.83;3.42;;;9.90;99.90;;;;;;2076071;28;20219;-83
2023/09/27 00:56:11;;;;;;;4.15;3.72;;;9.90;99.90;;;;;;2075668;28;20181;-84
2023/09/27 00:57:11;;;;;;;3.87;3.47;;;9.90;99.90;;;;;;2075787;28;20650;-83
2023/09/27 00:58:18;;;;;;;3.70;3.40;;;9.90;99.90;;;;;;2075954;28;20196;-84
2023/09/27 00:59:19;;;;;;;6.82;3.97;;;10.00;99.90;;;;;;2074365;28;20307;-83
2023/09/27 01:00:20;;;;;;;3.73;3.43;;;9.90;99.90;;;;;;2076604;28;20663;-83
2023/09/27 01:01:22;;;;;;;3.60;3.30;;;9.80;99.90;;;;;;2073360;28;20232;-83
2023/09/27 01:02:23;;;;;;;4.07;3.70;;;9.80;99.90;;;;;;2075227;28;20218;-84
2023/09/27 01:03:24;;;;;;;3.70;3.40;;;9.80;99.90;;;;;;2075243;28;20233;-82
2023/09/27 01:04:25;;;;;;;4.13;3.73;;;9.80;99.90;;;;;;2083435;28;20307;-83
2023/09/27 01:05:26;;;;;;;3.90;3.57;;;9.80;99.90;;;;;;2075667;28;20240;-83
2023/09/27 01:06:26;;;;;;;4.43;3.40;;;9.80;99.90;;;;;;2076484;28;20479;-84
2023/09/27 01:07:28;;;;;;;3.93;3.50;;;9.80;99.90;;;;;;2075220;28;20241;-82
2023/09/27 01:08:29;;;;;;;4.20;3.65;;;9.80;99.90;;;;;;2074855;28;20232;-84
2023/09/27 01:09:32;;;;;;;4.25;3.85;;;9.80;99.90;;;;;;2074103;28;20234;-83
2023/09/27 01:10:32;;;;;;;4.30;3.90;;;9.70;99.90;;;;;;2075251;28;20712;-84
2023/09/27 01:11:33;;;;;;;4.40;4.00;;;9.70;99.90;;;;;;2075258;28;20244;-83
2023/09/27 01:12:34;;;;;;;3.65;3.20;;;9.70;99.90;;;;;;2075205;28;20225;-82
2023/09/27 01:13:35;;;;;;;4.90;3.30;;;9.80;99.90;;;;;;2075683;28;20237;-83
2023/09/27 01:14:35;;;;;;;4.20;3.80;;;9.70;99.90;;;;;;2075018;28;20472;-83
2023/09/27 01:15:36;;;;;;;4.30;3.90;;;9.70;99.90;;;;;;2075749;28;21558;-83
2023/09/27 01:16:36;;;;;;;4.13;3.63;;;9.70;99.90;;;;;;2071885;28;20228;-82
2023/09/27 01:18:01;;;;;;;3.80;3.50;;;9.70;99.90;;;;;;2075612;28;20348;-82
2023/09/27 01:19:02;;;;;;;4.05;3.17;;;9.70;99.90;;;;;;2074588;28;20287;-83
2023/09/27 01:20:09;;;;;;;4.20;3.50;;;9.70;99.90;;;;;;2075839;28;20232;-83
2023/09/27 01:21:10;;;;;;;5.28;3.85;;;9.70;99.90;;;;;;2073633;28;21001;-83
2023/09/27 01:22:10;;;;;;;4.07;3.60;;;9.80;99.90;;;;;;2065950;28;20220;-83
2023/09/27 01:23:11;;;;;;;4.07;3.67;;;9.80;99.90;;;;;;2068308;28;20185;-83
2023/09/27 01:24:12;;;;;;;4.03;3.60;;;9.80;99.90;;;;;;2068293;28;20281;-83
2023/09/27 01:25:16;;;;;;;3.60;3.20;;;9.70;99.90;;;;;;2076271;28;20239;-83
2023/09/27 01:26:18;;;;;;;3.97;3.60;;;9.60;99.90;;;;;;2076347;28;20223;-83
2023/09/27 01:27:20;;;;;;;4.00;3.60;;;9.70;99.90;;;;;;2068941;28;20241;-82
2023/09/27 01:28:21;;;;;;;4.20;3.80;;;9.70;99.90;;;;;;2077417;28;20196;-83
2023/09/27 01:29:21;;;;;;;3.83;3.53;;;9.60;99.90;;;;;;2075729;28;20186;-83
2023/09/27 01:30:22;;;;;;;4.27;3.60;;;9.60;99.90;;;;;;2076082;28;20227;-82
2023/09/27 01:31:23;;;;;;;4.37;3.97;;;9.50;99.90;;;;;;2074540;28;21643;-83
2023/09/27 01:32:23;;;;;;;3.80;3.50;;;9.50;99.90;;;;;;2076911;28;20237;-83
2023/09/27 01:33:25;;;;;;;4.13;3.73;;;9.50;99.90;;;;;;2076371;28;20229;-83
2023/09/27 01:34:26;;;;;;;4.07;3.67;;;9.50;99.90;;;;;;2075965;28;20256;-83
2023/09/27 01:35:26;;;;;;;4.23;3.60;;;9.50;99.90;;;;;;2076365;28;20283;-82
2023/09/27 01:36:27;;;;;;;3.90;3.60;;;9.60;99.90;;;;;;2068563;28;20218;-83
2023/09/27 01:37:27;;;;;;;4.13;3.73;;;9.50;99.90;;;;;;2076929;28;20251;-83
2023/09/27 01:38:28;;;;;;;3.90;3.53;;;9.50;99.90;;;;;;2077530;28;20702;-83
2023/09/27 01:39:30;;;;;;;4.93;3.90;;;9.50;99.90;;;;;;2076050;28;20232;-83
2023/09/27 01:40:31;;;;;;;5.47;4.22;;;9.50;99.90;;;;;;2075586;28;20323;-82
2023/09/27 01:41:32;;;;;;;4.18;3.78;;;9.60;99.90;;;;;;2068328;28;20299;-83
2023/09/27 01:42:32;;;;;;;4.67;4.20;;;9.60;99.90;;;;;;2075877;28;20231;-83
2023/09/27 01:43:33;;;;;;;5.60;3.80;;;9.70;99.90;;;;;;2076474;28;20229;-83
2023/09/27 01:44:33;;;;;;;3.73;3.40;;;9.70;99.90;;;;;;2076153;28;20267;-83
2023/09/27 01:45:34;;;;;;;4.20;3.80;;;9.70;99.90;;;;;;2072491;28;20260;-82
2023/09/27 01:46:35;;;;;;;4.35;3.83;;;9.70;99.90;;;;;;2076336;28;20239;-83
2023/09/27 01:47:36;;;;;;;4.27;3.50;;;9.70;99.90;;;;;;2075648;28;20292;-82
2023/09/27 01:48:37;;;;;;;3.57;3.27;;;9.80;99.90;;;;;;2068620;28;20226;-82
2023/09/27 01:49:38;;;;;;;4.38;3.97;;;9.80;99.90;;;;;;2075736;28;20225;-83
2023/09/27 01:50:38;;;;;;;4.60;4.20;;;9.70;99.90;;;;;;2077513;28;20220;-83
2023/09/27 01:51:39;;;;;;;4.03;3.63;;;9.70;99.90;;;;;;2077158;28;20686;-83
2023/09/27 01:52:40;;;;;;;4.97;4.47;;;9.70;99.90;;;;;;2075325;28;20332;-83
2023/09/27 01:53:40;;;;;;;6.47;5.40;;;9.70;99.90;;;;;;2076597;28;20278;-82
2023/09/27 01:54:41;;;;;;;5.70;3.13;;;9.60;99.90;;;;;;2077314;28;20287;-83
2023/09/27 01:55:41;;;;;;;4.63;3.90;;;9.60;99.90;;;;;;2076301;28;20817;-83
2023/09/27 01:56:42;;;;;;;4.60;4.20;;;9.70;99.90;;;;;;2076212;28;20240;-83
2023/09/27 01:57:45;;;;;;;3.90;3.50;;;9.60;99.90;;;;;;2076386;28;20221;-83
2023/09/27 01:58:46;;;;;;;4.80;4.40;;;9.70;99.90;;;;;;2076795;28;20221;-83
2023/09/27 01:59:46;;;;;;;4.20;3.90;;;9.80;99.90;;;;;;2076224;28;20642;-83
2023/09/27 02:00:47;;;;;;;4.70;3.63;;;9.70;99.90;;;;;;2075861;28;20226;-83
2023/09/27 02:01:47;;;;;;;4.83;3.30;;;9.80;99.90;;;;;;2075908;28;20701;-82
2023/09/27 02:02:51;;;;;;;3.97;3.40;;;9.90;99.90;;;;;;2068021;28;20242;-83
2023/09/27 02:03:52;;;;;;;3.35;3.03;;;9.90;99.90;;;;;;2075522;28;20232;-83
2023/09/27 02:04:52;;;;;;;4.67;3.60;;;9.70;99.90;;;;;;2068544;28;20236;-82
2023/09/27 02:05:53;;;;;;;3.77;3.40;;;9.70;99.90;;;;;;2068428;28;20277;-83
2023/09/27 02:06:54;;;;;;;4.40;3.23;;;9.70;99.90;;;;;;2076558;28;20361;-83
2023/09/27 02:07:55;;;;;;;4.25;3.85;;;9.70;99.90;;;;;;2068289;28;20366;-82
2023/09/27 02:08:55;;;;;;;5.50;3.40;;;9.70;99.90;;;;;;2068465;28;20237;-82
2023/09/27 02:09:56;;;;;;;3.80;3.50;;;9.70;99.90;;;;;;2075722;28;20229;-83
2023/09/27 02:10:56;;;;;;;4.17;3.73;;;9.70;99.90;;;;;;2076612;28;20264;-83
2023/09/27 02:11:57;;;;;;;3.80;3.40;;;9.80;99.90;;;;;;2068666;28;20285;-83
2023/09/27 02:12:58;;;;;;;3.97;3.57;;;9.70;99.90;;;;;;2070573;28;20228;-82
2023/09/27 02:13:58;;;;;;;4.30;3.90;;;9.80;99.90;;;;;;2080634;28;20759;-82
2023/09/27 02:15:00;;;;;;;4.60;4.20;;;9.80;99.90;;;;;;2080764;28;20261;-81
2023/09/27 02:16:00;;;;;;;4.13;3.53;;;9.90;99.90;;;;;;2080808;28;20228;-82
2023/09/27 02:17:01;;;;;;;5.10;3.80;;;9.90;99.90;;;;;;2078789;28;20256;-83
2023/09/27 02:18:02;;;;;;;4.50;3.70;;;9.90;99.90;;;;;;2076736;28;20229;-82
2023/09/27 02:19:04;;;;;;;5.20;3.30;;;9.90;99.90;;;;;;2076826;28;20268;-83
2023/09/27 02:20:07;;;;;;;4.93;3.55;;;9.90;99.90;;;;;;2076136;28;20384;-82
2023/09/27 02:21:08;;;;;;;4.13;3.45;;;9.90;99.90;;;;;;2077699;28;20193;-83
2023/09/27 02:22:08;;;;;;;3.90;3.10;;;9.80;99.90;;;;;;2069254;28;20503;-83
2023/09/27 02:23:09;;;;;;;4.07;3.40;;;9.80;99.90;;;;;;2075355;28;20188;-83
2023/09/27 02:24:09;;;;;;;3.50;3.20;;;9.70;99.90;;;;;;2073190;28;20197;-83
2023/09/27 02:25:11;;;;;;;3.40;3.10;;;9.70;99.90;;;;;;2067811;28;20190;-84
2023/09/27 02:26:12;;;;;;;3.90;3.55;;;9.70;99.90;;;;;;2076068;28;20193;-83
2023/09/27 02:27:14;;;;;;;3.42;3.13;;;9.70;99.90;;;;;;2076894;28;20202;-83
2023/09/27 02:28:14;;;;;;;3.70;3.40;;;9.70;99.90;;;;;;2077210;28;20181;-83
2023/09/27 02:29:15;;;;;;;4.67;4.00;;;9.70;99.90;;;;;;2068411;28;20186;-82
2023/09/27 02:30:16;;;;;;;4.30;3.90;;;9.60;99.90;;;;;;2068483;28;20204;-82
2023/09/27 02:31:17;;;;;;;4.40;3.57;;;9.60;99.90;;;;;;2076889;28;20178;-83
2023/09/27 02:32:17;;;;;;;5.10;3.50;;;9.60;99.90;;;;;;2075067;28;20236;-82
2023/09/27 02:33:18;;;;;;;4.23;3.80;;;9.60;99.90;;;;;;2062845;28;20240;-81
2023/09/27 02:34:19;;;;;;;3.80;3.40;;;9.50;99.90;;;;;;2071642;28;20274;-82
2023/09/27 02:35:20;;;;;;;4.23;3.40;;;9.50;99.90;;;;;;2072965;28;20279;-81
2023/09/27 02:36:21;;;;;;;3.83;3.45;;;9.40;99.90;;;;;;2072879;28;20188;-83
2023/09/27 02:37:22;;;;;;;4.07;3.67;;;9.40;99.90;;;;;;2070379;28;20272;-81
2023/09/27 02:38:22;;;;;;;3.60;3.30;;;9.40;99.90;;;;;;2077583;28;20189;-81
2023/09/27 02:39:23;;;;;;;5.03;3.80;;;9.50;99.90;;;;;;2079085;28;21609;-83
2023/09/27 02:40:23;;;;;;;5.20;4.70;;;9.40;99.90;;;;;;2079470;28;20245;-83
2023/09/27 02:41:24;;;;;;;5.40;4.73;;;9.40;99.90;;;;;;2077369;28;20275;-83
2023/09/27 02:42:25;;;;;;;4.80;4.27;;;9.50;99.90;;;;;;2078265;28;20248;-83
2023/09/27 02:43:26;;;;;;;5.07;4.57;;;9.60;99.90;;;;;;2077208;28;20263;-84
2023/09/27 02:44:27;;;;;;;5.55;4.70;;;9.60;99.90;;;;;;2084851;28;20231;-82
2023/09/27 02:45:28;;;;;;;5.47;4.90;;;9.50;99.90;;;;;;2077211;28;20291;-82
2023/09/27 02:46:28;;;;;;;4.50;4.10;;;9.50;99.90;;;;;;2076940;28;20236;-83
2023/09/27 02:47:29;;;;;;;5.07;3.83;;;9.50;99.90;;;;;;2076649;28;20237;-83
2023/09/27 02:48:31;;;;;;;4.78;4.38;;;9.50;99.90;;;;;;2068434;28;20234;-83
2023/09/27 02:49:35;;;;;;;4.40;3.97;;;9.50;99.90;;;;;;2068518;28;20242;-82
2023/09/27 02:50:35;;;;;;;4.60;4.20;;;9.50;99.90;;;;;;2076521;28;20232;-82
2023/09/27 02:51:37;;;;;;;4.10;3.70;;;9.40;99.90;;;;;;2067524;28;20238;-82
2023/09/27 02:52:38;;;;;;;5.50;4.07;;;9.40;99.90;;;;;;2074623;28;20661;-82
2023/09/27 02:53:39;;;;;;;5.93;4.25;;;9.30;99.90;;;;;;2081075;28;20283;-83
2023/09/27 02:54:40;;;;;;;4.95;4.50;;;9.40;99.90;;;;;;2084573;28;20269;-83
2023/09/27 02:55:40;;;;;;;4.77;4.23;;;9.40;99.90;;;;;;2077355;28;20295;-83
2023/09/27 02:56:44;;;;;;;5.73;4.53;;;9.50;99.90;;;;;;2076465;28;20312;-83
2023/09/27 02:57:50;;;;;;;5.75;4.22;;;9.50;99.90;;;;;;2076109;28;20226;-83
2023/09/27 02:58:51;;;;;;;4.05;3.65;;;9.50;99.90;;;;;;2076022;28;20236;-83
2023/09/27 02:59:52;;;;;;;4.35;3.95;;;9.50;99.90;;;;;;2076128;28;20225;-83
2023/09/27 03:00:52;;;;;;;7.03;3.93;;;9.50;99.90;;;;;;2075521;28;20295;-82
2023/09/27 03:01:53;;;;;;;4.43;3.80;;;9.40;99.90;;;;;;2075056;28;20230;-83
2023/09/27 03:02:55;;;;;;;4.10;3.70;;;9.50;99.90;;;;;;2076071;28;20598;-83
2023/09/27 03:03:57;;;;;;;5.63;3.78;;;9.50;99.90;;;;;;2074528;28;20632;-83
2023/09/27 03:04:58;;;;;;;4.27;3.40;;;9.50;99.90;;;;;;2068052;28;20271;-83
2023/09/27 03:05:58;;;;;;;3.70;3.40;;;9.50;99.90;;;;;;2073779;28;20272;-83
2023/09/27 03:07:00;;;;;;;3.77;3.43;;;9.50;99.90;;;;;;2074811;28;20236;-83
2023/09/27 03:08:01;;;;;;;5.38;3.70;;;9.50;99.90;;;;;;2076810;28;20248;-83
2023/09/27 03:09:03;;;;;;;5.03;4.10;;;9.50;99.90;;;;;;2075453;28;20687;-83
2023/09/27 03:10:08;;;;;;;4.28;3.88;;;9.50;99.90;;;;;;2075489;28;20248;-82
2023/09/27 03:11:09;;;;;;;4.13;3.72;;;9.50;99.90;;;;;;2076385;28;20573;-83
2023/09/27 03:12:11;;;;;;;4.15;3.45;;;9.40;99.90;;;;;;2074783;28;20616;-83
2023/09/27 03:13:12;;;;;;;4.57;3.72;;;9.30;99.90;;;;;;2076262;28;20185;-83
2023/09/27 03:14:12;;;;;;;4.40;4.00;;;9.30;99.90;;;;;;2082727;28;20230;-83
2023/09/27 03:15:14;;;;;;;5.43;4.50;;;9.30;99.90;;;;;;2083465;28;20227;-83
2023/09/27 03:16:15;;;;;;;5.45;4.95;;;9.30;99.90;;;;;;2083947;28;20280;-83
2023/09/27 03:17:15;;;;;;;5.90;5.37;;;9.20;99.90;;;;;;2075648;28;20231;-83
2023/09/27 03:18:17;;;;;;;6.17;5.27;;;9.20;99.90;;;;;;2076313;28;20209;-82
2023/09/27 03:19:20;;;;;;;6.13;5.53;;;9.20;99.90;;;;;;2083226;28;20185;-83
2023/09/27 03:20:21;;;;;;;5.70;5.10;;;9.20;99.90;;;;;;2080747;28;20233;-83
2023/09/27 03:21:21;;;;;;;5.93;5.37;;;9.20;99.90;;;;;;2075868;28;20625;-83
2023/09/27 03:22:22;;;;;;;5.33;4.83;;;9.20;99.90;;;;;;2076071;28;20195;-83
2023/09/27 03:23:23;;;;;;;5.40;4.90;;;9.30;99.90;;;;;;2076341;28;21042;-83
2023/09/27 03:24:25;;;;;;;5.80;5.20;;;9.30;99.90;;;;;;2075479;28;20237;-83
2023/09/27 03:25:26;;;;;;;5.28;4.78;;;9.30;99.90;;;;;;2075961;28;20232;-83
2023/09/27 03:26:27;;;;;;;5.43;4.93;;;9.20;99.90;;;;;;2075677;28;20240;-83
2023/09/27 03:27:27;;;;;;;5.77;4.40;;;9.20;99.90;;;;;;2074681;28;20241;-83
2023/09/27 03:28:29;;;;;;;5.53;4.93;;;9.30;99.90;;;;;;2076266;28;20229;-83
2023/09/27 03:29:30;;;;;;;5.47;4.87;;;9.30;99.90;;;;;;2065944;28;20240;-83
2023/09/27 03:30:31;;;;;;;4.88;4.03;;;9.40;99.90;;;;;;2067441;28;20234;-83
2023/09/27 03:31:32;;;;;;;4.73;4.33;;;9.30;99.90;;;;;;2074805;28;20268;-82
2023/09/27 03:32:33;;;;;;;5.60;4.90;;;9.30;99.90;;;;;;2075905;28;20229;-83
2023/09/27 03:33:33;;;;;;;5.23;4.73;;;9.40;99.90;;;;;;2079141;28;20273;-83
2023/09/27 03:34:34;;;;;;;5.77;4.53;;;9.40;99.90;;;;;;2066997;28;20475;-83
2023/09/27 03:35:35;;;;;;;4.90;4.30;;;9.40;99.90;;;;;;2075335;28;20239;-83
2023/09/27 03:36:35;;;;;;;4.50;4.10;;;9.40;99.90;;;;;;2074510;28;20244;-83
2023/09/27 03:37:36;;;;;;;6.73;5.07;;;9.30;99.90;;;;;;2073343;28;20284;-83
2023/09/27 03:38:36;;;;;;;4.57;4.17;;;9.30;99.90;;;;;;2070418;28;20717;-83
2023/09/27 03:39:37;;;;;;;5.53;4.70;;;9.40;99.90;;;;;;2074033;28;20252;-82
2023/09/27 03:40:40;;;;;;;6.47;3.70;;;9.40;99.90;;;;;;2083155;28;20224;-83
2023/09/27 03:41:40;;;;;;;5.80;4.57;;;9.30;99.90;;;;;;2074332;28;20228;-83
2023/09/27 03:42:45;;;;;;;4.97;4.43;;;9.30;99.90;;;;;;2067009;28;20222;-83
2023/09/27 03:43:46;;;;;;;5.25;4.75;;;9.30;99.90;;;;;;2075340;28;20348;-83
2023/09/27 03:44:48;;;;;;;4.45;4.03;;;9.30;99.90;;;;;;2074563;28;20251;-83
2023/09/27 03:45:49;;;;;;;5.47;4.22;;;9.30;99.90;;;;;;2074950;28;20221;-83
2023/09/27 03:46:50;;;;;;;3.95;3.65;;;9.30;99.90;;;;;;2074963;28;20302;-82
2023/09/27 03:47:51;;;;;;;4.88;4.38;;;9.20;99.90;;;;;;2074972;28;20283;-83
2023/09/27 03:48:52;;;;;;;4.87;4.37;;;9.20;99.90;;;;;;2075565;28;20720;-83
2023/09/27 03:49:52;;;;;;;6.07;4.53;;;9.20;99.90;;;;;;2073746;28;20228;-83
2023/09/27 03:50:53;;;;;;;4.90;4.27;;;9.10;99.90;;;;;;2075092;28;20308;-83
2023/09/27 03:51:53;;;;;;;6.20;4.90;;;9.10;99.90;;;;;;2074350;28;20293;-82
2023/09/27 03:52:58;;;;;;;5.97;5.17;;;9.20;99.90;;;;;;2074360;28;20723;-83
2023/09/27 03:53:58;;;;;;;5.13;4.65;;;9.10;99.90;;;;;;2074412;28;20232;-81
2023/09/27 03:54:59;;;;;;;5.27;4.77;;;9.10;99.90;;;;;;2075549;28;20240;-83
2023/09/27 03:55:59;;;;;;;6.30;5.53;;;9.10;99.90;;;;;;2074487;28;20233;-83
2023/09/27 03:57:00;;;;;;;6.17;5.50;;;9.10;99.90;;;;;;2067039;28;20321;-83
2023/09/27 03:58:01;;;;;;;8.83;6.90;;;9.00;99.90;;;;;;2066821;28;20239;-82
2023/09/27 03:59:01;;;;;;;7.00;5.80;;;9.00;99.90;;;;;;2074884;28;20227;-82
2023/09/27 04:00:14;;;;;;;6.27;5.60;;;9.10;99.90;;;;;;2073951;28;20263;-82
2023/09/27 04:01:16;;;;;;;6.78;6.03;;;9.10;99.90;;;;;;2073995;28;20248;-82
2023/09/27 04:02:17;;;;;;;5.70;5.20;;;9.10;99.90;;;;;;2075077;28;20531;-83
2023/09/27 04:03:18;;;;;;;6.27;5.70;;;9.10;99.90;;;;;;2075288;28;20237;-84
2023/09/27 04:04:18;;;;;;;6.50;5.90;;;9.10;99.90;;;;;;2075272;28;20193;-83
2023/09/27 04:05:22;;;;;;;6.57;5.57;;;9.10;99.90;;;;;;2073981;28;20439;-83
2023/09/27 04:06:24;;;;;;;5.07;4.57;;;9.10;99.90;;;;;;2073384;28;20224;-82
2023/09/27 04:07:25;;;;;;;5.95;5.13;;;9.10;99.90;;;;;;2074221;28;20249;-83
2023/09/27 04:08:26;;;;;;;5.22;4.68;;;9.10;99.90;;;;;;2073915;28;20737;-83
2023/09/27 04:09:27;;;;;;;5.53;5.03;;;9.10;99.90;;;;;;2074392;28;20256;-83
2023/09/27 04:10:28;;;;;;;5.80;5.30;;;9.00;99.90;;;;;;2073846;28;20310;-83
2023/09/27 04:11:29;;;;;;;5.78;5.20;;;9.10;99.90;;;;;;2082439;28;20233;-82
2023/09/27 04:12:30;;;;;;;6.13;5.53;;;9.10;99.90;;;;;;2074738;28;20300;-83
2023/09/27 04:13:32;;;;;;;6.77;6.17;;;9.10;99.90;;;;;;2074667;28;20296;-83
2023/09/27 04:14:33;;;;;;;7.25;6.35;;;9.10;99.90;;;;;;2075149;28;20462;-83
2023/09/27 04:15:35;;;;;;;7.10;6.40;;;9.10;99.90;;;;;;2074602;28;20262;-83
2023/09/27 04:16:36;;;;;;;6.60;6.00;;;9.10;99.90;;;;;;2074994;28;20278;-83
2023/09/27 04:17:37;;;;;;;8.40;5.63;;;9.10;99.90;;;;;;2074266;28;20260;-83
2023/09/27 04:18:38;;;;;;;5.93;5.43;;;9.00;99.90;;;;;;2075678;28;20243;-83
2023/09/27 04:19:39;;;;;;;5.57;5.07;;;9.10;99.90;;;;;;2075684;28;20252;-83
2023/09/27 04:20:40;;;;;;;5.67;5.17;;;9.10;99.90;;;;;;2074187;28;20287;-83
2023/09/27 04:21:40;;;;;;;5.67;5.07;;;9.10;99.90;;;;;;2074620;28;20228;-82
2023/09/27 04:22:43;;;;;;;6.00;5.50;;;9.00;99.90;;;;;;2074481;28;20227;-81
2023/09/27 04:23:44;;;;;;;6.20;5.60;;;9.00;99.90;;;;;;2075592;28;20233;-83
2023/09/27 04:24:44;;;;;;;5.37;4.87;;;9.00;99.90;;;;;;2075252;28;20291;-83
2023/09/27 04:25:45;;;;;;;5.80;5.30;;;9.00;99.90;;;;;;2075910;28;20520;-82
2023/09/27 04:26:46;;;;;;;6.03;5.43;;;9.00;99.90;;;;;;2083240;28;20223;-83
2023/09/27 04:27:49;;;;;;;5.77;5.23;;;9.00;99.90;;;;;;2074467;28;20256;-83
2023/09/27 04:28:51;;;;;;;5.97;5.10;;;9.00;99.90;;;;;;2074265;28;20619;-82
2023/09/27 04:29:51;;;;;;;5.65;5.15;;;9.00;99.90;;;;;;2075107;28;20283;-82
2023/09/27 04:30:52;;;;;;;4.90;4.40;;;8.90;99.90;;;;;;2074765;28;20240;-82
2023/09/27 04:31:53;;;;;;;6.10;4.67;;;8.90;99.90;;;;;;2074830;28;20234;-83
2023/09/27 04:32:54;;;;;;;5.38;4.82;;;8.90;99.90;;;;;;2064513;28;20226;-83
2023/09/27 04:33:54;;;;;;;5.13;4.30;;;8.90;99.90;;;;;;2070359;28;20281;-82
2023/09/27 04:34:55;;;;;;;4.77;4.37;;;8.90;99.90;;;;;;2070943;28;20243;-82
2023/09/27 04:35:55;;;;;;;5.20;4.70;;;8.80;99.90;;;;;;2074261;28;20287;-83
2023/09/27 04:36:56;;;;;;;5.70;4.40;;;8.80;99.90;;;;;;2081067;28;20250;-83
2023/09/27 04:37:57;;;;;;;4.47;4.07;;;8.80;99.90;;;;;;2076412;28;20238;-83
2023/09/27 04:38:57;;;;;;;4.70;4.30;;;8.80;99.90;;;;;;2068717;28;20222;-83
2023/09/27 04:39:58;;;;;;;4.97;4.47;;;8.80;99.90;;;;;;2067953;28;20238;-83
2023/09/27 04:40:58;;;;;;;4.43;4.00;;;8.80;99.90;;;;;;2067536;28;20306;-84
2023/09/27 04:41:59;;;;;;;4.30;3.90;;;8.80;99.90;;;;;;2075808;28;20236;-82
2023/09/27 04:43:01;;;;;;;4.57;4.17;;;8.80;99.90;;;;;;2076603;28;20234;-82
2023/09/27 04:44:01;;;;;;;5.00;4.35;;;8.80;99.90;;;;;;2075721;28;20264;-82
2023/09/27 04:45:03;;;;;;;4.50;4.10;;;8.70;99.90;;;;;;2076176;28;20225;-83
2023/09/27 04:46:03;;;;;;;4.72;4.30;;;8.80;99.90;;;;;;2075171;28;20231;-83
2023/09/27 04:47:04;;;;;;;5.43;4.43;;;8.80;99.90;;;;;;2067661;28;20657;-84
2023/09/27 04:48:05;;;;;;;4.83;4.33;;;8.80;99.90;;;;;;2067391;28;20188;-81
2023/09/27 04:49:06;;;;;;;5.65;5.15;;;8.70;99.90;;;;;;2075509;28;20201;-83
2023/09/27 04:50:09;;;;;;;5.53;4.67;;;8.70;99.90;;;;;;2076765;28;20184;-83
2023/09/27 04:51:10;;;;;;;4.97;4.50;;;8.70;99.90;;;;;;2075713;28;20209;-82
2023/09/27 04:52:10;;;;;;;5.30;4.80;;;8.70;99.90;;;;;;2075451;28;20262;-83
2023/09/27 04:53:11;;;;;;;5.27;4.77;;;8.70;99.90;;;;;;2075626;28;20240;-83
2023/09/27 04:54:12;;;;;;;5.20;4.70;;;8.70;99.90;;;;;;2074842;28;20812;-83
2023/09/27 04:55:12;;;;;;;4.40;4.00;;;8.70;99.90;;;;;;2076103;28;20620;-83
2023/09/27 04:56:13;;;;;;;5.03;4.17;;;8.70;99.90;;;;;;2066027;28;20184;-83
2023/09/27 04:57:13;;;;;;;6.17;4.37;;;8.60;99.90;;;;;;2074865;28;20191;-82
2023/09/27 04:58:14;;;;;;;4.40;4.00;;;8.60;99.90;;;;;;2074905;28;20636;-82
2023/09/27 04:59:15;;;;;;;7.40;4.03;;;8.50;99.90;;;;;;2066488;28;20614;-82
2023/09/27 05:00:18;;;;;;;4.27;3.87;;;8.50;99.90;;;;;;2066680;28;20217;-83
2023/09/27 05:01:20;;;;;;;4.97;4.57;;;8.50;99.90;;;;;;2067012;28;20201;-83
2023/09/27 05:02:20;;;;;;;4.50;4.05;;;8.50;99.90;;;;;;2066289;28;20236;-84
2023/09/27 05:03:21;;;;;;;4.83;4.30;;;8.40;99.90;;;;;;2065321;28;20603;-82
2023/09/27 05:04:22;;;;;;;5.20;4.70;;;8.50;99.90;;;;;;2064884;28;20211;-82
2023/09/27 05:05:22;;;;;;;4.77;3.87;;;8.50;99.90;;;;;;2066474;28;20203;-83
2023/09/27 05:06:23;;;;;;;5.60;4.80;;;8.60;99.90;;;;;;2066384;28;20289;-83
2023/09/27 05:07:24;;;;;;;4.57;4.17;;;8.50;99.90;;;;;;2075336;28;20806;-83
2023/09/27 05:08:26;;;;;;;5.07;4.57;;;8.50;99.90;;;;;;2073886;28;20243;-83
2023/09/27 05:09:27;;;;;;;4.40;4.00;;;8.50;99.90;;;;;;2072891;28;20306;-82
2023/09/27 05:10:27;;;;;;;5.20;4.07;;;8.60;99.90;;;;;;2075278;28;20234;-82
2023/09/27 05:11:28;;;;;;;4.20;3.80;;;8.60;99.90;;;;;;2073440;28;20237;-83
2023/09/27 05:12:28;;;;;;;4.20;3.63;;;8.50;99.90;;;;;;2065887;28;20234;-84
2023/09/27 05:13:29;;;;;;;3.90;3.30;;;8.50;99.90;;;;;;2057708;28;20262;-83
2023/09/27 05:14:30;;;;;;;4.60;4.10;;;8.50;99.90;;;;;;2066097;28;20279;-83
2023/09/27 05:15:32;;;;;;;6.53;3.83;;;8.50;99.90;;;;;;2063356;28;20350;-83
2023/09/27 05:16:36;;;;;;;6.22;4.03;;;8.50;99.90;;;;;;2066441;28;20793;-83
2023/09/27 05:17:37;;;;;;;4.78;4.22;;;8.50;99.90;;;;;;2064135;28;20233;-81
2023/09/27 05:18:38;;;;;;;5.37;4.87;;;8.50;99.90;;;;;;2071314;28;20304;-83
2023/09/27 05:19:38;;;;;;;5.50;4.27;;;8.50;99.90;;;;;;2071041;28;20239;-82
2023/09/27 05:20:39;;;;;;;4.40;4.00;;;8.50;99.90;;;;;;2072601;28;20956;-82
2023/09/27 05:21:39;;;;;;;5.10;4.07;;;8.60;99.90;;;;;;2072881;28;20239;-83
2023/09/27 05:22:41;;;;;;;5.17;4.17;;;8.60;99.90;;;;;;2069876;28;20237;-82